West Lebanon, Indiana
Current Conditions -  °F | °C
As of 9:15 AM on Friday 24 Oct 2014 (Local Time) from KDNV Reporting Station
Overcast Overcast  
Wind Chill: 49°   Ceiling: 2200
Heat Index: 49°   Visibility: 7mi
Dew Point: 47°   Wind: 3mph
Humidity: 94%   Direction: 200°SSW
Pressure: 30.07"   Gusts: NA
Location:  40.27°N, 87.39°W
Report Text: KDNV 241315Z AUTO 20003KT 7SM OVC022 10/09 A3007 RMK AO2 T00960086
Loading
Personal Weather Stations






























Interactive Weather Map
Tropical Storm Tracking
New forecast layout! Learn more

10-Day Weather Forecast

Advertisements
Track Severe Weather on mobile